Terminal Aerodrome Forecast
Issued by NWS

Home | Current Version | Previous Version | Text Only | Print | Product List | Glossary On
Versions: 1 2 3 4 5 6 7 8 9 10 11 12 13 14 15 16 17 18 19 20 21 22 23 24 25 26 27 28 29 30 31 32 33
000
FTUS45 KGJT 240226 AAA
TAFEGE
TAF AMD
KEGE 240226Z 2402/2424 14007KT P6SM VCTS SCT070 BKN110CB
      TEMPO 2402/2403 VRB10G20KT -TSRA SCT050 BKN070CB
     FM240300 11005KT P6SM VCSH SCT100 BKN150
     FM241000 00000KT P6SM FEW120 BKN200
     FM241900 25010G20KT P6SM VCTS SCT100CB BKN150
      AMD LTD TO CLD VIS AND WIND 2402/2413=

USA.gov is the U.S. government's official web portal to all federal, state and local government web resources and services.